Time;durP1;ratioP1;P1;durP2;ratioP2;P2;SDS_P1;SDS_P2;PMS_P1;PMS_P2;Temp;Humidity;BMP_temperature;BMP_pressure;BME280_temperature;BME280_humidity;BME280_pressure;Samples;Min_cycle;Max_cycle;Signal;HPM_P1;HPM_P2
2022/07/26 00:01:59;;;;;;;1.95;1.85;;;21.80;75.80;;;;;;5107778;28;20024;-59
2022/07/26 00:04:25;;;;;;;2.50;2.30;;;21.80;76.00;;;;;;5106061;28;20024;-59
2022/07/26 00:06:51;;;;;;;2.35;2.15;;;21.70;76.10;;;;;;5118380;28;20694;-59
2022/07/26 00:09:17;;;;;;;2.35;2.20;;;21.70;76.20;;;;;;5111501;28;20065;-59
2022/07/26 00:11:42;;;;;;;2.40;2.00;;;21.70;76.10;;;;;;5109001;28;20098;-59
2022/07/26 00:14:09;;;;;;;2.97;1.95;;;21.60;76.20;;;;;;5108061;28;20016;-59
2022/07/26 00:16:36;;;;;;;1.85;1.65;;;21.70;76.40;;;;;;5105182;28;20493;-59
2022/07/26 00:19:02;;;;;;;2.38;2.17;;;21.60;76.50;;;;;;5102653;28;20020;-59
2022/07/26 00:21:29;;;;;;;2.20;2.10;;;21.60;76.70;;;;;;5114885;28;20115;-59
2022/07/26 00:23:55;;;;;;;2.72;2.53;;;21.60;76.80;;;;;;5111472;28;20384;-59
2022/07/26 00:26:21;;;;;;;2.35;2.17;;;21.60;76.90;;;;;;5105131;27;20047;-59
2022/07/26 00:28:47;;;;;;;2.58;2.38;;;21.60;76.90;;;;;;5097170;27;20024;-59
2022/07/26 00:31:12;;;;;;;2.85;2.40;;;21.60;76.90;;;;;;5107642;27;20106;-58
2022/07/26 00:33:39;;;;;;;2.63;2.30;;;21.60;77.10;;;;;;5122239;27;20440;-59
2022/07/26 00:36:05;;;;;;;2.40;2.20;;;21.60;77.10;;;;;;5112655;27;20044;-59
2022/07/26 00:38:31;;;;;;;2.38;2.17;;;21.60;77.30;;;;;;5107643;27;20501;-59
2022/07/26 00:40:57;;;;;;;2.70;2.08;;;21.60;77.10;;;;;;5115157;27;20095;-59
2022/07/26 00:43:22;;;;;;;2.20;2.10;;;21.60;77.00;;;;;;5110874;27;20111;-59
2022/07/26 00:45:49;;;;;;;2.20;2.00;;;21.50;76.80;;;;;;5104755;27;20054;-59
2022/07/26 00:48:15;;;;;;;2.00;1.90;;;21.50;76.70;;;;;;5101854;28;20036;-59
2022/07/26 00:50:41;;;;;;;2.15;2.03;;;21.50;76.60;;;;;;5107225;27;20134;-59
2022/07/26 00:53:07;;;;;;;2.50;2.30;;;21.50;76.60;;;;;;5108512;27;20059;-59
2022/07/26 00:55:32;;;;;;;2.25;2.15;;;21.60;76.80;;;;;;5107653;28;20406;-59
2022/07/26 00:58:00;;;;;;;2.67;2.40;;;21.50;76.60;;;;;;5113465;27;20413;-59
2022/07/26 01:00:26;;;;;;;2.10;2.00;;;21.50;76.90;;;;;;5109615;27;20498;-59
2022/07/26 01:02:54;;;;;;;2.75;2.45;;;21.50;77.10;;;;;;5102020;27;20072;-59
2022/07/26 01:05:21;;;;;;;2.47;2.28;;;21.50;77.10;;;;;;5111014;27;20039;-59
2022/07/26 01:07:48;;;;;;;2.33;2.15;;;21.50;77.00;;;;;;5105305;28;20034;-59
2022/07/26 01:10:14;;;;;;;2.40;2.20;;;21.40;77.00;;;;;;5108569;27;20487;-59
2022/07/26 01:12:41;;;;;;;2.28;2.08;;;21.50;77.10;;;;;;5105034;27;20061;-59
2022/07/26 01:15:08;;;;;;;2.13;1.92;;;21.40;77.00;;;;;;5107003;27;20028;-59
2022/07/26 01:17:34;;;;;;;2.45;2.30;;;21.40;77.10;;;;;;5103155;27;20116;-59
2022/07/26 01:20:00;;;;;;;2.80;2.10;;;21.40;77.00;;;;;;5119188;27;20110;-59
2022/07/26 01:22:26;;;;;;;2.72;2.40;;;21.30;76.90;;;;;;5118299;27;20023;-59
2022/07/26 01:24:51;;;;;;;2.45;2.25;;;21.30;76.90;;;;;;5106210;27;20380;-59
2022/07/26 01:27:17;;;;;;;2.70;2.50;;;21.20;76.70;;;;;;5108465;27;20027;-59
2022/07/26 01:29:43;;;;;;;2.53;2.33;;;21.20;76.70;;;;;;5116252;27;20526;-59
2022/07/26 01:32:09;;;;;;;3.13;2.53;;;21.20;76.90;;;;;;5115465;27;20368;-59
2022/07/26 01:34:34;;;;;;;2.83;2.55;;;21.10;76.90;;;;;;5101654;27;20112;-59
2022/07/26 01:37:00;;;;;;;2.50;2.30;;;21.10;77.00;;;;;;5103364;27;20395;-59
2022/07/26 01:39:26;;;;;;;2.60;2.40;;;21.00;77.00;;;;;;5101490;28;20027;-59
2022/07/26 01:41:52;;;;;;;2.40;2.20;;;21.00;76.90;;;;;;5119018;27;20031;-59
2022/07/26 01:44:18;;;;;;;2.70;2.50;;;21.00;77.10;;;;;;5117324;27;20024;-58
2022/07/26 01:46:44;;;;;;;2.60;2.40;;;20.90;77.10;;;;;;5105995;27;20442;-59
2022/07/26 01:49:09;;;;;;;2.65;2.30;;;20.90;77.20;;;;;;5112408;27;20128;-59
2022/07/26 01:51:35;;;;;;;2.55;2.35;;;20.90;77.10;;;;;;5112163;27;20042;-59
2022/07/26 01:54:01;;;;;;;3.78;2.40;;;20.90;77.20;;;;;;5110665;27;20464;-59
2022/07/26 01:56:27;;;;;;;2.40;2.20;;;20.90;77.30;;;;;;5104193;27;20464;-59
2022/07/26 01:58:53;;;;;;;2.47;2.25;;;20.90;77.40;;;;;;5105692;27;20077;-59
2022/07/26 02:01:18;;;;;;;2.60;2.40;;;20.80;77.40;;;;;;5105869;27;20032;-59
2022/07/26 02:03:44;;;;;;;2.83;2.55;;;20.80;77.40;;;;;;5110828;27;21951;-59
2022/07/26 02:06:10;;;;;;;2.80;2.60;;;20.90;77.50;;;;;;5109124;28;20102;-59
2022/07/26 02:08:35;;;;;;;2.47;2.28;;;20.80;77.50;;;;;;5104812;27;20106;-59
2022/07/26 02:11:02;;;;;;;4.30;2.75;;;20.80;77.60;;;;;;5110270;27;20028;-59
2022/07/26 02:13:27;;;;;;;2.50;2.30;;;20.80;77.60;;;;;;5119041;27;20494;-59
2022/07/26 02:15:53;;;;;;;2.60;2.40;;;20.80;77.70;;;;;;5103108;28;20051;-59
2022/07/26 02:18:19;;;;;;;2.70;2.50;;;20.80;77.80;;;;;;5118229;27;20035;-59
2022/07/26 02:20:44;;;;;;;2.40;2.20;;;20.70;77.80;;;;;;5107132;27;20609;-59
2022/07/26 02:23:10;;;;;;;2.28;2.08;;;20.80;77.90;;;;;;5112107;27;20433;-59
2022/07/26 02:25:36;;;;;;;2.60;2.40;;;20.70;78.60;;;;;;5106404;28;20379;-60
2022/07/26 02:28:01;;;;;;;2.90;2.60;;;20.70;78.00;;;;;;5109813;27;20027;-59
2022/07/26 02:30:28;;;;;;;2.42;2.22;;;20.70;78.10;;;;;;5108364;27;20024;-59
2022/07/26 02:32:53;;;;;;;2.63;2.42;;;20.70;78.20;;;;;;5094928;27;20052;-59
2022/07/26 02:35:19;;;;;;;2.85;2.55;;;20.70;78.40;;;;;;5107562;27;20057;-59
2022/07/26 02:37:45;;;;;;;2.60;2.40;;;20.70;78.50;;;;;;5100923;27;20032;-59
2022/07/26 02:40:11;;;;;;;2.53;2.33;;;20.70;78.60;;;;;;5111285;27;20035;-59
2022/07/26 02:42:36;;;;;;;2.10;1.98;;;20.60;78.60;;;;;;5112845;27;20479;-59
2022/07/26 02:45:02;;;;;;;2.85;2.50;;;20.70;78.60;;;;;;5107448;27;20016;-59
2022/07/26 02:47:29;;;;;;;2.78;2.58;;;20.60;78.60;;;;;;5110368;27;20054;-59
2022/07/26 02:49:54;;;;;;;2.25;2.15;;;20.70;78.80;;;;;;5103967;27;20024;-59
2022/07/26 02:52:20;;;;;;;2.70;2.50;;;20.70;78.80;;;;;;5103539;27;20052;-59
2022/07/26 02:54:46;;;;;;;2.80;2.60;;;20.60;78.80;;;;;;5105779;27;20460;-59
2022/07/26 02:57:13;;;;;;;2.67;2.47;;;20.70;78.90;;;;;;5115256;27;20019;-59
2022/07/26 02:59:39;;;;;;;2.45;2.25;;;20.70;78.90;;;;;;5115980;27;20030;-59
2022/07/26 03:02:04;;;;;;;3.70;3.20;;;20.70;79.00;;;;;;5103968;28;20483;-59
2022/07/26 03:04:31;;;;;;;3.28;2.67;;;20.70;79.10;;;;;;5101220;27;20036;-59
2022/07/26 03:06:57;;;;;;;3.00;2.70;;;20.70;79.00;;;;;;5102359;27;20106;-59
2022/07/26 03:09:22;;;;;;;2.75;2.55;;;20.70;79.10;;;;;;5112002;27;20455;-59
2022/07/26 03:11:48;;;;;;;2.90;2.60;;;20.80;79.20;;;;;;5109101;28;20115;-59
2022/07/26 03:14:14;;;;;;;3.15;2.60;;;20.80;79.30;;;;;;5108476;27;20029;-59
2022/07/26 03:16:40;;;;;;;2.88;2.60;;;20.80;79.30;;;;;;5095203;27;20038;-59
2022/07/26 03:19:05;;;;;;;3.20;2.80;;;20.80;79.20;;;;;;5121369;27;20028;-59
2022/07/26 03:21:31;;;;;;;3.45;3.15;;;20.80;79.40;;;;;;5109736;27;20031;-59
2022/07/26 03:23:57;;;;;;;3.30;2.90;;;20.90;79.50;;;;;;5109701;27;20040;-59
2022/07/26 03:26:22;;;;;;;3.35;3.05;;;20.80;79.40;;;;;;5105131;27;20024;-59
2022/07/26 03:28:48;;;;;;;2.67;2.42;;;20.90;79.50;;;;;;5105956;28;20020;-59
2022/07/26 03:31:13;;;;;;;2.90;2.60;;;20.80;79.40;;;;;;5123516;27;20019;-59
2022/07/26 03:33:40;;;;;;;2.67;2.47;;;20.90;79.50;;;;;;5107166;28;20063;-59
2022/07/26 03:36:09;;;;;;;2.83;2.63;;;20.90;79.60;;;;;;5101274;28;20016;-59
2022/07/26 03:38:35;;;;;;;3.50;3.20;;;20.90;79.50;;;;;;5101476;28;20379;-59
2022/07/26 03:41:01;;;;;;;3.22;2.80;;;20.90;79.50;;;;;;5110685;28;20103;-59
2022/07/26 03:43:27;;;;;;;2.67;2.42;;;21.00;79.60;;;;;;5113827;28;20028;-59
2022/07/26 03:45:53;;;;;;;3.13;2.83;;;21.00;79.70;;;;;;5115865;28;20023;-59
2022/07/26 03:48:19;;;;;;;3.45;2.88;;;21.00;79.80;;;;;;5089425;28;20135;-59
2022/07/26 03:50:44;;;;;;;3.20;2.90;;;21.00;79.90;;;;;;5105331;28;20054;-59
2022/07/26 03:53:10;;;;;;;2.60;2.40;;;21.10;79.90;;;;;;5116012;28;20035;-59
2022/07/26 03:58:21;;;;;;;2.90;2.60;;;21.20;80.60;;;;;;5102848;28;20432;-59
2022/07/26 04:00:46;;;;;;;3.05;2.65;;;21.40;80.70;;;;;;5112857;28;20047;-59
2022/07/26 04:03:12;;;;;;;2.72;2.53;;;21.60;80.10;;;;;;5111301;27;20027;-59
2022/07/26 04:05:37;;;;;;;2.80;2.60;;;21.80;80.30;;;;;;5120993;27;20160;-60
2022/07/26 04:08:03;;;;;;;2.80;2.60;;;22.10;79.20;;;;;;5118447;27;20024;-59
2022/07/26 04:10:29;;;;;;;4.78;2.90;;;22.30;78.20;;;;;;5111091;28;20076;-59
2022/07/26 04:12:55;;;;;;;2.97;2.67;;;22.40;78.00;;;;;;5105517;27;20024;-60
2022/07/26 04:15:20;;;;;;;2.92;2.60;;;22.70;79.10;;;;;;5102609;27;20210;-61
2022/07/26 04:17:49;;;;;;;2.83;2.60;;;23.30;77.90;;;;;;5115929;27;20031;-61
2022/07/26 04:20:15;;;;;;;3.08;2.70;;;23.80;76.30;;;;;;5118942;27;20032;-61
2022/07/26 04:22:41;;;;;;;3.20;2.90;;;24.40;76.10;;;;;;5108366;27;20506;-61
2022/07/26 04:25:08;;;;;;;2.58;2.38;;;25.30;74.80;;;;;;5113342;27;20030;-58
2022/07/26 04:27:34;;;;;;;2.90;2.70;;;26.20;73.20;;;;;;5108971;27;20027;-58
2022/07/26 04:30:00;;;;;;;2.67;2.45;;;27.20;71.50;;;;;;5110278;27;20055;-60
2022/07/26 04:32:26;;;;;;;3.63;2.33;;;28.10;70.00;;;;;;5112565;27;20024;-59
2022/07/26 04:34:53;;;;;;;2.35;2.15;;;29.00;68.80;;;;;;5120398;27;20026;-61
2022/07/26 04:37:18;;;;;;;1.95;1.85;;;29.80;66.50;;;;;;5109905;27;20035;-61
2022/07/26 04:39:44;;;;;;;2.35;2.15;;;30.50;64.80;;;;;;5110264;27;20442;-61
2022/07/26 04:42:10;;;;;;;2.13;1.92;;;31.20;63.40;;;;;;5123482;27;20035;-61
2022/07/26 04:44:37;;;;;;;2.25;2.05;;;31.90;62.30;;;;;;5117488;27;20016;-61
2022/07/26 04:47:03;;;;;;;2.60;2.40;;;32.50;61.00;;;;;;5119248;27;20031;-62
2022/07/26 04:49:28;;;;;;;2.15;1.95;;;32.90;59.70;;;;;;5105636;27;20024;-61
2022/07/26 04:51:54;;;;;;;3.20;2.35;;;33.30;58.80;;;;;;5113212;27;20036;-60
2022/07/26 04:54:21;;;;;;;1.88;1.77;;;33.50;57.60;;;;;;5114138;27;20364;-60
2022/07/26 04:56:47;;;;;;;2.22;2.00;;;33.70;57.20;;;;;;5109447;27;20019;-60
2022/07/26 04:59:16;;;;;;;2.42;2.33;;;33.90;56.40;;;;;;5113059;27;20663;-60
2022/07/26 05:01:42;;;;;;;2.15;1.95;;;34.10;55.80;;;;;;5109236;27;20530;-60
2022/07/26 05:04:08;;;;;;;1.88;1.77;;;34.40;55.30;;;;;;5120570;27;20065;-60
2022/07/26 05:06:33;;;;;;;2.05;1.95;;;34.60;54.60;;;;;;5112544;27;20104;-60
2022/07/26 05:08:59;;;;;;;1.73;1.63;;;34.90;53.90;;;;;;5118687;27;20023;-60
2022/07/26 05:11:25;;;;;;;2.33;2.08;;;35.10;53.60;;;;;;5123592;27;20027;-60
2022/07/26 05:13:51;;;;;;;2.20;2.10;;;35.40;53.30;;;;;;5115451;27;20027;-60
2022/07/26 05:16:16;;;;;;;2.10;2.00;;;35.60;52.80;;;;;;5109128;27;20036;-60
2022/07/26 05:18:42;;;;;;;2.78;2.40;;;35.70;52.20;;;;;;5117189;27;20058;-60
2022/07/26 05:21:08;;;;;;;2.33;2.13;;;35.60;51.00;;;;;;5121683;27;20081;-60
2022/07/26 05:23:33;;;;;;;2.05;1.85;;;35.00;51.00;;;;;;5116454;27;20030;-60
2022/07/26 05:25:59;;;;;;;1.75;1.65;;;34.10;51.20;;;;;;5098077;27;20016;-60
2022/07/26 05:28:24;;;;;;;2.20;2.00;;;33.30;51.80;;;;;;5108855;27;20026;-60
2022/07/26 05:30:50;;;;;;;2.42;2.22;;;32.50;52.60;;;;;;5114380;27;20031;-60
2022/07/26 05:33:16;;;;;;;2.50;2.30;;;31.80;53.20;;;;;;5108755;27;20512;-60
2022/07/26 05:35:42;;;;;;;2.50;2.30;;;31.20;53.60;;;;;;5101061;27;20474;-60
2022/07/26 05:38:08;;;;;;;2.25;2.05;;;30.80;54.10;;;;;;5099432;27;20024;-60
2022/07/26 05:40:33;;;;;;;2.40;2.20;;;30.40;54.70;;;;;;5092830;27;20495;-60
2022/07/26 05:42:59;;;;;;;3.67;2.30;;;29.90;55.20;;;;;;5092087;27;20724;-60
2022/07/26 05:45:24;;;;;;;2.35;2.17;;;29.50;55.70;;;;;;5094959;27;20043;-60
2022/07/26 05:47:51;;;;;;;2.35;2.15;;;29.10;56.30;;;;;;5101547;27;20059;-60
2022/07/26 05:50:17;;;;;;;2.35;2.15;;;28.70;56.80;;;;;;5102328;27;20035;-60
2022/07/26 05:52:42;;;;;;;2.08;1.98;;;28.40;57.40;;;;;;5092386;27;20032;-60
2022/07/26 05:55:08;;;;;;;2.20;2.00;;;28.20;58.00;;;;;;5097642;28;20063;-60
2022/07/26 05:57:34;;;;;;;2.15;1.95;;;27.90;58.40;;;;;;5092822;27;20127;-60
2022/07/26 06:00:00;;;;;;;2.47;2.28;;;27.70;58.90;;;;;;5096286;27;20118;-60
2022/07/26 06:02:25;;;;;;;2.45;2.25;;;27.50;59.20;;;;;;5094017;27;20452;-60
2022/07/26 06:04:51;;;;;;;2.80;2.38;;;27.30;59.60;;;;;;5093645;28;20085;-60
2022/07/26 06:07:17;;;;;;;2.10;1.98;;;27.20;59.90;;;;;;5099862;27;20386;-60
2022/07/26 06:09:43;;;;;;;2.88;2.45;;;27.10;60.30;;;;;;5100887;27;20130;-59
2022/07/26 06:12:08;;;;;;;2.13;2.03;;;27.00;60.40;;;;;;5098973;27;20028;-60
2022/07/26 06:14:34;;;;;;;2.10;2.00;;;26.90;60.70;;;;;;5091848;27;20019;-60
2022/07/26 06:17:01;;;;;;;2.63;2.42;;;26.70;61.10;;;;;;5089592;27;20050;-60
2022/07/26 06:19:27;;;;;;;2.60;2.40;;;26.70;61.50;;;;;;5089836;28;20024;-60
2022/07/26 06:21:52;;;;;;;1.98;1.88;;;26.60;61.50;;;;;;5094569;27;20020;-60
2022/07/26 06:24:18;;;;;;;1.98;1.88;;;26.50;61.70;;;;;;5101299;27;20027;-60
2022/07/26 06:26:45;;;;;;;2.42;2.22;;;26.40;61.80;;;;;;5096795;27;20032;-61
2022/07/26 06:29:11;;;;;;;2.65;2.45;;;26.40;62.10;;;;;;5097130;27;20114;-60
2022/07/26 06:31:37;;;;;;;2.20;2.10;;;26.30;62.40;;;;;;5098178;27;21265;-60
2022/07/26 06:34:02;;;;;;;2.20;2.08;;;26.30;62.50;;;;;;5091855;27;20162;-60
2022/07/26 06:36:28;;;;;;;2.42;2.03;;;26.20;62.70;;;;;;5088088;27;20055;-60
2022/07/26 06:38:54;;;;;;;2.20;2.10;;;26.20;62.90;;;;;;5104172;27;20066;-61
2022/07/26 06:41:19;;;;;;;1.90;1.80;;;26.10;62.70;;;;;;5093652;27;20871;-59
2022/07/26 06:43:45;;;;;;;2.15;2.05;;;26.10;63.00;;;;;;5089671;27;20024;-59
2022/07/26 06:46:32;;;;;;;1.90;1.80;;;26.10;62.80;;;;;;5098776;27;20401;-58
2022/07/26 06:48:57;;;;;;;1.80;1.70;;;26.10;62.90;;;;;;5061248;28;20056;-58
2022/07/26 06:51:23;;;;;;;1.85;1.75;;;26.00;62.90;;;;;;5072245;28;20036;-59
2022/07/26 06:53:49;;;;;;;1.65;1.55;;;26.00;63.10;;;;;;5054930;28;20033;-58
2022/07/26 06:56:17;;;;;;;1.63;1.52;;;26.00;63.10;;;;;;5047773;28;20036;-55
2022/07/26 06:58:42;;;;;;;2.35;2.15;;;26.00;63.30;;;;;;5053102;28;20048;-57
2022/07/26 07:01:08;;;;;;;1.95;1.85;;;25.90;63.50;;;;;;5044968;28;20017;-57
2022/07/26 07:03:34;;;;;;;2.42;2.20;;;25.90;63.70;;;;;;5058336;28;20136;-56
2022/07/26 07:06:00;;;;;;;2.15;1.90;;;25.80;63.60;;;;;;5062906;28;20085;-56
2022/07/26 07:08:26;;;;;;;2.05;1.95;;;25.80;63.70;;;;;;5072296;28;20032;-55
2022/07/26 07:10:52;;;;;;;1.90;1.80;;;25.80;63.50;;;;;;5064862;28;20024;-57
2022/07/26 07:13:18;;;;;;;2.10;2.00;;;25.80;63.70;;;;;;5067712;28;20128;-57
2022/07/26 07:15:44;;;;;;;2.03;1.92;;;25.70;63.60;;;;;;5062086;28;20043;-56
2022/07/26 07:18:10;;;;;;;1.65;1.55;;;25.70;63.50;;;;;;5064982;28;20035;-57
2022/07/26 07:20:36;;;;;;;1.75;1.65;;;25.70;63.50;;;;;;5069168;28;20085;-57
2022/07/26 07:23:01;;;;;;;2.38;2.17;;;25.60;63.60;;;;;;5063703;28;20028;-58
2022/07/26 07:25:27;;;;;;;2.03;1.92;;;25.60;63.60;;;;;;5062235;28;20035;-56
2022/07/26 07:27:53;;;;;;;1.90;1.80;;;25.60;63.40;;;;;;5067548;28;20039;-54
2022/07/26 07:30:19;;;;;;;1.90;1.80;;;25.60;63.40;;;;;;5065353;28;20028;-57
2022/07/26 07:32:44;;;;;;;2.53;2.33;;;25.60;63.60;;;;;;5061425;28;20606;-58
2022/07/26 07:35:10;;;;;;;2.75;2.20;;;25.60;63.80;;;;;;5065915;28;20040;-57
2022/07/26 07:37:37;;;;;;;2.40;2.20;;;25.60;63.90;;;;;;5067687;28;20634;-60
2022/07/26 07:40:07;;;;;;;1.92;1.83;;;25.60;63.80;;;;;;5064905;28;20029;-57
2022/07/26 07:42:34;;;;;;;2.72;2.08;;;25.60;63.90;;;;;;5066412;28;20680;-57
2022/07/26 07:44:59;;;;;;;2.15;2.03;;;25.60;64.10;;;;;;5065603;28;20109;-57
2022/07/26 07:47:25;;;;;;;1.88;1.77;;;25.60;64.00;;;;;;5071755;28;20032;-58
2022/07/26 07:49:51;;;;;;;1.70;1.60;;;25.60;63.80;;;;;;5065980;28;20024;-57
2022/07/26 07:52:16;;;;;;;2.42;1.85;;;25.60;63.80;;;;;;5060089;28;20029;-59
2022/07/26 07:54:42;;;;;;;2.60;2.10;;;25.60;63.50;;;;;;5062395;28;20397;-57
2022/07/26 07:57:08;;;;;;;2.40;2.20;;;25.60;63.30;;;;;;5048232;28;20040;-58
2022/07/26 07:59:34;;;;;;;2.30;2.10;;;25.60;63.60;;;;;;5050585;28;20029;-57
2022/07/26 08:02:00;;;;;;;2.00;1.90;;;25.50;63.60;;;;;;5049645;28;20036;-58
2022/07/26 08:04:26;;;;;;;2.60;2.40;;;25.50;63.80;;;;;;5048990;28;20048;-59
2022/07/26 08:06:51;;;;;;;2.40;2.20;;;25.50;63.80;;;;;;5048036;28;20037;-58
2022/07/26 08:09:18;;;;;;;2.00;1.83;;;25.60;64.20;;;;;;5037412;28;20037;-57
2022/07/26 08:11:44;;;;;;;2.53;2.33;;;25.50;64.30;;;;;;5045662;28;20551;-56
2022/07/26 08:14:10;;;;;;;1.80;1.70;;;25.50;64.30;;;;;;5040368;28;20032;-57
2022/07/26 08:16:36;;;;;;;2.10;2.00;;;25.50;64.10;;;;;;5044546;28;20032;-57
2022/07/26 08:19:02;;;;;;;2.47;2.20;;;25.50;64.30;;;;;;5040091;28;20024;-58
2022/07/26 08:21:28;;;;;;;3.45;2.33;;;25.50;64.30;;;;;;5039171;28;20056;-57
2022/07/26 08:23:53;;;;;;;2.40;2.20;;;25.50;64.10;;;;;;5043562;28;20107;-58
2022/07/26 08:26:19;;;;;;;2.40;2.20;;;25.50;64.10;;;;;;5046761;28;20043;-59
2022/07/26 08:28:45;;;;;;;2.40;2.20;;;25.50;64.10;;;;;;5039454;28;20033;-58
2022/07/26 08:31:10;;;;;;;2.22;2.03;;;25.50;63.90;;;;;;5044289;28;20124;-56
2022/07/26 08:33:37;;;;;;;2.28;2.10;;;25.50;64.00;;;;;;5041724;28;20025;-58
2022/07/26 08:36:03;;;;;;;2.50;2.20;;;25.50;64.00;;;;;;5040429;28;22104;-57
2022/07/26 08:38:28;;;;;;;3.08;2.28;;;25.40;64.00;;;;;;5038827;28;20033;-58
2022/07/26 08:40:54;;;;;;;2.00;1.90;;;25.40;64.10;;;;;;5039403;28;20039;-58
2022/07/26 08:43:20;;;;;;;1.90;1.80;;;25.40;63.90;;;;;;5038617;28;20119;-59
2022/07/26 08:45:46;;;;;;;1.88;1.77;;;25.40;64.10;;;;;;5041804;28;21488;-56
2022/07/26 08:48:12;;;;;;;2.45;2.20;;;25.40;64.20;;;;;;5047432;28;20080;-58
2022/07/26 08:50:39;;;;;;;2.45;2.25;;;25.40;64.10;;;;;;5045899;28;20016;-58
2022/07/26 08:53:08;;;;;;;2.05;1.95;;;25.40;64.20;;;;;;5047864;28;20030;-58
2022/07/26 08:55:35;;;;;;;2.53;2.33;;;25.30;64.00;;;;;;5048099;28;20040;-59
2022/07/26 08:58:02;;;;;;;2.38;2.17;;;25.30;64.10;;;;;;5047977;28;20484;-59
2022/07/26 09:00:29;;;;;;;1.75;1.65;;;25.20;64.10;;;;;;5041632;28;20033;-58
2022/07/26 09:02:57;;;;;;;2.30;2.10;;;25.20;64.10;;;;;;5047333;28;20523;-57
2022/07/26 09:05:27;;;;;;;2.08;1.88;;;25.20;64.00;;;;;;5044802;28;20616;-58
2022/07/26 09:07:53;;;;;;;1.88;1.70;;;25.20;64.00;;;;;;5042701;28;20161;-57
2022/07/26 09:10:19;;;;;;;2.75;2.55;;;25.10;63.90;;;;;;5041970;28;20041;-58
2022/07/26 09:12:45;;;;;;;2.22;2.05;;;25.10;64.40;;;;;;5046898;28;20077;-58
2022/07/26 09:15:19;;;;;;;1.77;1.67;;;25.10;64.20;;;;;;5046414;28;20037;-57
2022/07/26 09:17:49;;;;;;;2.40;2.20;;;25.00;64.20;;;;;;5045209;28;20032;-58
2022/07/26 09:20:19;;;;;;;2.28;2.10;;;25.00;64.20;;;;;;5044372;28;20032;-58
2022/07/26 09:23:08;;;;;;;2.77;2.40;;;25.00;64.40;;;;;;5050421;28;20093;-58
2022/07/26 09:25:38;;;;;;;2.55;2.35;;;25.00;64.20;;;;;;5043290;28;21496;-57
2022/07/26 09:28:21;;;;;;;2.35;2.15;;;25.00;64.20;;;;;;5043839;28;20037;-57
2022/07/26 09:31:01;;;;;;;2.40;2.20;;;25.00;64.20;;;;;;5043967;28;20048;-57
2022/07/26 09:33:44;;;;;;;2.55;2.35;;;25.00;64.40;;;;;;5047170;28;20037;-58
2022/07/26 09:36:10;;;;;;;2.25;2.05;;;25.00;64.60;;;;;;5060621;28;20044;-57
2022/07/26 09:38:50;;;;;;;1.77;1.67;;;25.00;64.30;;;;;;5034508;28;20037;-57
2022/07/26 09:41:20;;;;;;;1.70;1.60;;;25.00;63.90;;;;;;5040868;28;20040;-58
2022/07/26 09:43:47;;;;;;;4.50;2.75;;;25.00;64.00;;;;;;5046499;28;20571;-57
2022/07/26 09:46:13;;;;;;;3.25;2.13;;;25.00;64.10;;;;;;5040046;28;20045;-58
2022/07/26 09:48:38;;;;;;;2.40;2.20;;;25.00;64.30;;;;;;5040975;28;20036;-58
2022/07/26 09:51:06;;;;;;;2.05;1.95;;;25.00;64.10;;;;;;5042531;28;20036;-58
2022/07/26 09:53:43;;;;;;;2.10;2.00;;;25.00;64.00;;;;;;5039330;28;20024;-58
2022/07/26 09:56:09;;;;;;;2.25;2.05;;;25.00;63.70;;;;;;5047277;28;20060;-58
2022/07/26 09:58:37;;;;;;;2.00;1.90;;;25.00;63.60;;;;;;5040364;28;20175;-58
2022/07/26 10:01:06;;;;;;;2.17;2.08;;;25.00;63.60;;;;;;5038157;28;21203;-58
2022/07/26 10:03:34;;;;;;;2.17;1.98;;;25.00;63.50;;;;;;5043605;28;20024;-57
2022/07/26 10:06:01;;;;;;;2.33;2.13;;;25.00;63.60;;;;;;5039880;28;20025;-57
2022/07/26 10:08:28;;;;;;;2.42;2.00;;;25.00;63.60;;;;;;5043333;28;20025;-57
2022/07/26 10:11:07;;;;;;;2.17;1.98;;;25.00;63.40;;;;;;5039800;28;20071;-57
2022/07/26 10:13:33;;;;;;;2.25;2.05;;;25.00;63.20;;;;;;5023542;28;20059;-57
2022/07/26 10:16:00;;;;;;;2.30;2.10;;;25.00;63.40;;;;;;5033556;28;20012;-58
2022/07/26 10:18:35;;;;;;;2.20;2.00;;;24.90;63.50;;;;;;5048192;28;20028;-58
2022/07/26 10:21:20;;;;;;;2.58;1.92;;;24.90;63.60;;;;;;5050921;28;20025;-56
2022/07/26 10:24:08;;;;;;;2.88;2.03;;;24.90;63.80;;;;;;5050262;28;20039;-58
2022/07/26 10:26:36;;;;;;;2.03;1.90;;;24.90;63.50;;;;;;5046652;28;20028;-58
2022/07/26 10:29:24;;;;;;;1.80;1.70;;;24.90;63.40;;;;;;5045053;28;20433;-58
2022/07/26 10:32:14;;;;;;;2.08;1.92;;;24.90;63.70;;;;;;5044810;28;20040;-57
2022/07/26 10:34:39;;;;;;;2.50;2.30;;;24.90;63.80;;;;;;5052422;28;20040;-56
2022/07/26 10:37:28;;;;;;;2.05;1.95;;;24.90;63.80;;;;;;5058109;28;20021;-58
2022/07/26 10:40:19;;;;;;;1.88;1.77;;;24.90;63.90;;;;;;5057120;28;20085;-58
2022/07/26 10:42:45;;;;;;;2.28;2.08;;;24.90;64.00;;;;;;5048991;28;20052;-58
2022/07/26 10:45:20;;;;;;;1.85;1.75;;;24.90;64.00;;;;;;5056724;28;20738;-58
2022/07/26 10:48:18;;;;;;;1.80;1.70;;;24.90;64.10;;;;;;5051020;28;20107;-58
2022/07/26 10:50:46;;;;;;;2.13;1.98;;;25.00;64.20;;;;;;5051813;28;20043;-57
2022/07/26 10:53:19;;;;;;;1.90;1.80;;;25.00;64.00;;;;;;5049797;28;20036;-58
2022/07/26 10:55:53;;;;;;;1.95;1.85;;;25.10;64.10;;;;;;5042210;28;20036;-58
2022/07/26 10:58:21;;;;;;;2.03;1.77;;;25.10;63.90;;;;;;5039929;28;20504;-58
2022/07/26 11:00:59;;;;;;;2.10;2.00;;;25.10;63.70;;;;;;5039192;28;20115;-58
2022/07/26 11:03:34;;;;;;;2.00;1.80;;;25.20;63.60;;;;;;5033014;28;20029;-57
2022/07/26 11:06:18;;;;;;;2.00;1.90;;;25.20;63.50;;;;;;5037803;28;20044;-57
2022/07/26 11:08:46;;;;;;;1.80;1.70;;;25.20;62.90;;;;;;5042321;28;20395;-58
2022/07/26 11:11:12;;;;;;;1.77;1.67;;;25.20;63.10;;;;;;5036177;28;20032;-57
2022/07/26 11:13:39;;;;;;;1.65;1.55;;;25.20;62.80;;;;;;5047401;28;20528;-56
2022/07/26 11:16:07;;;;;;;1.52;1.42;;;25.30;62.80;;;;;;5044985;28;20424;-58
2022/07/26 11:18:35;;;;;;;2.08;1.60;;;25.40;62.70;;;;;;5048061;28;20039;-57
2022/07/26 11:21:27;;;;;;;2.08;1.88;;;25.40;62.60;;;;;;5038204;28;20116;-57
2022/07/26 11:24:01;;;;;;;2.22;2.03;;;25.40;62.00;;;;;;5035593;28;20496;-57
2022/07/26 11:26:30;;;;;;;2.25;1.80;;;25.50;62.20;;;;;;5032675;28;20025;-57
2022/07/26 11:28:57;;;;;;;2.08;1.98;;;25.50;62.20;;;;;;5036684;28;20040;-56
2022/07/26 11:31:44;;;;;;;1.88;1.77;;;25.50;62.20;;;;;;5031314;28;20036;-56
2022/07/26 11:34:23;;;;;;;1.52;1.42;;;25.50;62.20;;;;;;5037587;28;20033;-55
2022/07/26 11:36:52;;;;;;;1.63;1.52;;;25.50;61.80;;;;;;5043000;28;20025;-54
2022/07/26 11:39:26;;;;;;;1.65;1.55;;;25.60;61.90;;;;;;5038641;28;20929;-57
2022/07/26 11:42:07;;;;;;;1.95;1.85;;;25.60;61.50;;;;;;5051601;28;20028;-58
2022/07/26 11:44:34;;;;;;;1.60;1.50;;;25.60;62.20;;;;;;5049506;28;20098;-56
2022/07/26 11:47:09;;;;;;;1.80;1.70;;;25.60;61.40;;;;;;5048797;28;20027;-57
2022/07/26 11:49:35;;;;;;;1.77;1.50;;;25.60;61.30;;;;;;5037852;28;20393;-56
2022/07/26 11:52:02;;;;;;;1.75;1.65;;;25.60;61.20;;;;;;5039728;28;20024;-56
2022/07/26 11:54:30;;;;;;;2.30;1.85;;;25.60;61.20;;;;;;5038563;28;20021;-57
2022/07/26 11:56:57;;;;;;;1.85;1.75;;;25.60;61.20;;;;;;5041785;28;20139;-57
2022/07/26 11:59:25;;;;;;;1.40;1.30;;;25.50;61.90;;;;;;5046180;28;20047;-58
2022/07/26 12:01:51;;;;;;;2.05;1.85;;;25.50;61.20;;;;;;5039256;28;20097;-58
2022/07/26 12:04:23;;;;;;;2.30;1.80;;;25.50;61.30;;;;;;5039863;28;20783;-60
2022/07/26 12:06:49;;;;;;;1.65;1.55;;;25.50;61.00;;;;;;5043687;28;20032;-61
2022/07/26 12:09:34;;;;;;;1.70;1.58;;;25.50;60.80;;;;;;5047977;28;20029;-58
2022/07/26 12:12:07;;;;;;;1.60;1.50;;;25.50;60.80;;;;;;5049077;28;20037;-57
2022/07/26 12:14:36;;;;;;;2.00;1.80;;;25.50;60.90;;;;;;5051115;28;20028;-57
2022/07/26 12:17:13;;;;;;;1.30;1.30;;;25.50;60.80;;;;;;5043137;28;20056;-56
2022/07/26 12:19:39;;;;;;;1.90;1.80;;;25.50;60.70;;;;;;5038475;28;20121;-57
2022/07/26 12:22:14;;;;;;;1.48;1.38;;;25.40;60.50;;;;;;5044952;28;20485;-57
2022/07/26 12:24:41;;;;;;;1.92;1.83;;;25.40;60.40;;;;;;5042426;28;20565;-56
2022/07/26 12:27:25;;;;;;;1.50;1.40;;;25.40;60.50;;;;;;5038310;28;20036;-57
2022/07/26 12:30:12;;;;;;;1.60;1.50;;;25.40;61.20;;;;;;5043089;28;20049;-56
2022/07/26 12:32:40;;;;;;;2.00;1.90;;;25.40;61.00;;;;;;5042013;28;20035;-58
2022/07/26 12:35:15;;;;;;;2.13;1.92;;;25.40;61.60;;;;;;5038484;28;20036;-58
2022/07/26 12:37:46;;;;;;;2.00;1.80;;;25.30;61.20;;;;;;5049037;28;20040;-59
2022/07/26 12:40:16;;;;;;;1.98;1.88;;;25.30;61.30;;;;;;5041427;28;20036;-58
2022/07/26 12:42:54;;;;;;;1.90;1.77;;;25.30;61.40;;;;;;5042017;28;20037;-58
2022/07/26 12:45:23;;;;;;;2.20;2.00;;;25.30;61.50;;;;;;5043247;28;20049;-59
2022/07/26 12:47:51;;;;;;;1.80;1.70;;;25.30;61.50;;;;;;5048129;28;20039;-59
2022/07/26 12:50:19;;;;;;;2.22;2.03;;;25.20;61.40;;;;;;5043614;28;20021;-58
2022/07/26 12:52:46;;;;;;;1.52;1.42;;;25.20;61.40;;;;;;5042912;28;20649;-59
2022/07/26 12:55:15;;;;;;;1.88;1.77;;;25.20;61.10;;;;;;5043889;28;20090;-58